Time;durP1;ratioP1;P1;durP2;ratioP2;P2;SDS_P1;SDS_P2;PMS_P1;PMS_P2;Temp;Humidity;BMP_temperature;BMP_pressure;BME280_temperature;BME280_humidity;BME280_pressure;Samples;Min_cycle;Max_cycle;Signal;HPM_P1;HPM_P2
2023/01/19 00:01:00;;;;;;;5.63;1.20;;;3.00;99.90;;;;;;5095964;28;20044;-50
2023/01/19 00:03:26;;;;;;;3.90;0.93;;;3.10;99.90;;;;;;5078982;28;20043;-48
2023/01/19 00:05:51;;;;;;;5.25;1.20;;;3.10;99.90;;;;;;5097605;28;20868;-49
2023/01/19 00:08:17;;;;;;;4.22;0.98;;;2.90;99.90;;;;;;5079388;28;20138;-48
2023/01/19 00:10:46;;;;;;;8.90;1.40;;;3.10;99.90;;;;;;5079941;28;20051;-48
2023/01/19 00:13:13;;;;;;;4.70;1.13;;;3.00;99.90;;;;;;5077960;28;20048;-48
2023/01/19 00:15:39;;;;;;;5.97;1.10;;;2.90;99.90;;;;;;5098053;28;20040;-48
2023/01/19 00:18:05;;;;;;;3.30;0.68;;;3.00;99.90;;;;;;5097738;28;20116;-47
2023/01/19 00:20:34;;;;;;;6.25;1.23;;;3.20;99.90;;;;;;5097746;28;20405;-47
2023/01/19 00:23:00;;;;;;;8.60;2.33;;;3.10;99.90;;;;;;5091969;28;20040;-48
2023/01/19 00:25:26;;;;;;;8.23;1.17;;;3.10;99.90;;;;;;5090401;28;20047;-48
2023/01/19 00:27:52;;;;;;;8.48;1.10;;;3.10;99.90;;;;;;5097307;28;20078;-47
2023/01/19 00:30:18;;;;;;;11.68;1.65;;;3.00;99.90;;;;;;5097679;28;20465;-47
2023/01/19 00:32:43;;;;;;;8.18;1.48;;;2.90;99.90;;;;;;5096684;28;20047;-48
2023/01/19 00:35:09;;;;;;;4.88;1.30;;;2.90;99.90;;;;;;5097521;28;20461;-46
2023/01/19 00:37:35;;;;;;;5.60;1.00;;;3.00;99.90;;;;;;5097891;28;20079;-48
2023/01/19 00:40:01;;;;;;;4.32;1.15;;;2.90;99.90;;;;;;5098181;28;20075;-50
2023/01/19 00:42:39;;;;;;;11.23;1.33;;;2.70;99.90;;;;;;5096214;28;20043;-47
2023/01/19 00:45:09;;;;;;;9.88;1.33;;;2.60;99.90;;;;;;5078503;28;20408;-47
2023/01/19 00:47:35;;;;;;;15.23;1.63;;;2.70;99.90;;;;;;5095681;28;20136;-47
2023/01/19 00:50:01;;;;;;;4.53;1.10;;;2.80;99.90;;;;;;5076942;28;20166;-51
2023/01/19 00:52:27;;;;;;;3.42;1.00;;;2.80;99.90;;;;;;5094777;28;20039;-47
2023/01/19 00:54:52;;;;;;;7.88;1.00;;;2.90;99.90;;;;;;5095820;28;20032;-48
2023/01/19 00:57:18;;;;;;;8.07;1.17;;;3.00;99.90;;;;;;5096032;28;20114;-48
2023/01/19 00:59:44;;;;;;;7.55;1.17;;;3.00;99.90;;;;;;5095817;28;20043;-47
2023/01/19 01:02:10;;;;;;;11.48;1.70;;;2.80;99.90;;;;;;5078300;28;20385;-47
2023/01/19 01:04:36;;;;;;;8.82;1.05;;;2.80;99.90;;;;;;5096565;28;20122;-46
2023/01/19 01:07:03;;;;;;;9.05;1.20;;;2.80;99.90;;;;;;5078714;28;20100;-51
2023/01/19 01:09:29;;;;;;;12.73;1.50;;;2.90;99.90;;;;;;5096548;28;20158;-48
2023/01/19 01:11:55;;;;;;;13.07;1.55;;;2.80;99.90;;;;;;5096760;28;20044;-46
2023/01/19 01:14:22;;;;;;;8.10;1.23;;;2.90;99.90;;;;;;5078456;28;20407;-48
2023/01/19 01:16:47;;;;;;;7.90;1.23;;;3.10;99.90;;;;;;5096586;28;20079;-48
2023/01/19 01:19:13;;;;;;;9.77;1.75;;;2.90;99.90;;;;;;5097416;28;20462;-48
2023/01/19 01:21:39;;;;;;;8.23;1.33;;;2.90;99.90;;;;;;5078683;28;20088;-47
2023/01/19 01:24:05;;;;;;;11.60;1.23;;;3.20;99.90;;;;;;5096318;28;20093;-47
2023/01/19 01:26:30;;;;;;;7.60;1.38;;;3.20;99.90;;;;;;5097544;28;20043;-48
2023/01/19 01:28:56;;;;;;;6.57;1.30;;;3.10;99.90;;;;;;5096841;28;20494;-47
2023/01/19 01:31:21;;;;;;;9.52;1.40;;;3.20;99.90;;;;;;5097034;28;20117;-47
2023/01/19 01:33:47;;;;;;;10.73;1.42;;;3.10;99.90;;;;;;5095797;28;20668;-46
2023/01/19 01:36:13;;;;;;;10.50;1.10;;;3.00;99.90;;;;;;5096986;28;20081;-48
2023/01/19 01:38:40;;;;;;;8.65;1.30;;;3.30;99.90;;;;;;5096262;28;20119;-47
2023/01/19 01:41:06;;;;;;;15.13;1.90;;;3.30;99.90;;;;;;5096709;28;20101;-47
2023/01/19 01:43:55;;;;;;;7.65;1.10;;;3.20;99.90;;;;;;5095116;28;20047;-50
2023/01/19 01:46:21;;;;;;;5.90;1.10;;;3.40;99.90;;;;;;5078569;28;20615;-47
2023/01/19 01:48:55;;;;;;;10.25;1.35;;;3.20;99.90;;;;;;5096073;28;20079;-48
2023/01/19 01:51:36;;;;;;;11.05;1.52;;;3.20;99.90;;;;;;5095741;28;20043;-48
2023/01/19 01:54:31;;;;;;;7.15;1.23;;;3.20;99.90;;;;;;5095555;28;20494;-48
2023/01/19 01:57:01;;;;;;;8.30;1.48;;;3.40;99.90;;;;;;5091958;28;20549;-48
2023/01/19 01:59:40;;;;;;;12.48;1.67;;;3.20;99.90;;;;;;5078090;28;20345;-46
2023/01/19 02:04:59;;;;;;;6.10;1.00;;;3.30;99.90;;;;;;5080588;28;20054;-48
2023/01/19 02:13:20;;;;;;;6.95;1.30;;;3.10;99.90;;;;;;5094475;28;20051;-47
2023/01/19 02:15:48;;;;;;;5.75;1.00;;;3.20;99.90;;;;;;5095562;28;20051;-47
2023/01/19 02:18:15;;;;;;;4.22;1.10;;;3.30;99.90;;;;;;5076962;28;20055;-47
2023/01/19 02:20:54;;;;;;;6.55;1.15;;;3.40;99.90;;;;;;5095099;28;20497;-48
2023/01/19 02:23:41;;;;;;;9.23;1.17;;;3.40;99.90;;;;;;5075937;28;20051;-49
2023/01/19 02:26:09;;;;;;;3.25;0.90;;;3.20;99.90;;;;;;5095170;28;20085;-48
2023/01/19 02:28:40;;;;;;;7.25;0.90;;;3.40;99.90;;;;;;5076559;28;20047;-48
2023/01/19 02:31:06;;;;;;;4.00;1.52;;;3.10;99.90;;;;;;5095107;28;20482;-48
2023/01/19 02:33:31;;;;;;;4.07;0.93;;;3.10;99.90;;;;;;5094029;28;20043;-48
2023/01/19 02:35:58;;;;;;;4.15;1.00;;;3.30;99.90;;;;;;5076675;28;20046;-47
2023/01/19 02:38:26;;;;;;;2.25;0.70;;;3.40;99.90;;;;;;5095308;28;20048;-47
2023/01/19 02:40:54;;;;;;;5.88;1.00;;;3.10;99.90;;;;;;5094528;28;20409;-48
2023/01/19 02:43:22;;;;;;;3.35;0.70;;;3.30;99.90;;;;;;5075102;28;20044;-48
2023/01/19 02:45:48;;;;;;;3.67;0.70;;;3.10;99.90;;;;;;5093412;28;20075;-49
2023/01/19 02:48:17;;;;;;;6.70;0.93;;;3.20;99.90;;;;;;5094723;28;20088;-50
2023/01/19 02:50:47;;;;;;;5.22;0.98;;;3.10;99.90;;;;;;5075928;28;20464;-48
2023/01/19 02:53:31;;;;;;;5.38;0.90;;;3.20;99.90;;;;;;5093750;28;20104;-48
2023/01/19 02:56:00;;;;;;;4.57;0.90;;;3.30;99.90;;;;;;5094187;28;20043;-47
2023/01/19 02:58:42;;;;;;;6.90;1.23;;;3.30;99.90;;;;;;5094424;28;20438;-48
2023/01/19 03:01:17;;;;;;;6.57;0.80;;;3.10;99.90;;;;;;5089707;28;20256;-47
2023/01/19 03:03:53;;;;;;;2.47;0.70;;;3.10;99.90;;;;;;5091585;28;20043;-48
2023/01/19 03:06:36;;;;;;;2.42;0.60;;;3.20;99.90;;;;;;5073762;28;20051;-50
2023/01/19 03:09:34;;;;;;;2.42;0.65;;;3.20;99.90;;;;;;5094269;28;20039;-46
2023/01/19 03:12:20;;;;;;;7.95;0.82;;;3.10;99.90;;;;;;5083216;28;20055;-48
2023/01/19 03:14:47;;;;;;;6.78;1.17;;;3.40;99.90;;;;;;5093353;28;20063;-48
2023/01/19 03:17:16;;;;;;;4.85;1.00;;;3.40;99.90;;;;;;5094265;28;20047;-46
2023/01/19 03:19:46;;;;;;;5.45;1.05;;;3.40;99.90;;;;;;5093457;28;20444;-48
2023/01/19 03:22:16;;;;;;;8.20;1.20;;;3.50;99.90;;;;;;5092168;28;20044;-47
2023/01/19 03:24:44;;;;;;;4.63;1.02;;;3.40;99.90;;;;;;5093906;28;20058;-48
2023/01/19 03:27:30;;;;;;;6.57;1.00;;;3.50;99.90;;;;;;5093885;28;20069;-47
2023/01/19 03:30:09;;;;;;;7.25;1.20;;;3.40;99.90;;;;;;5094421;28;20099;-47
2023/01/19 03:32:42;;;;;;;4.10;0.88;;;3.40;99.90;;;;;;5093292;28;20104;-47
2023/01/19 03:35:13;;;;;;;6.03;0.70;;;3.50;99.90;;;;;;5093525;28;20154;-50
2023/01/19 03:37:43;;;;;;;5.85;0.60;;;3.50;99.90;;;;;;5058387;28;20401;-49
2023/01/19 03:40:10;;;;;;;6.03;0.98;;;3.30;99.90;;;;;;5075864;28;20545;-50
2023/01/19 03:42:37;;;;;;;2.97;0.80;;;3.40;99.90;;;;;;5074269;28;20052;-50
2023/01/19 03:45:04;;;;;;;3.15;0.50;;;3.40;99.90;;;;;;5094078;28;20157;-48
2023/01/19 03:47:30;;;;;;;4.55;0.65;;;3.50;99.90;;;;;;5081334;28;20051;-48
2023/01/19 03:49:57;;;;;;;5.43;0.90;;;3.30;99.90;;;;;;5092692;28;20055;-49
2023/01/19 03:52:32;;;;;;;6.60;1.45;;;3.40;99.90;;;;;;5080375;28;20062;-47
2023/01/19 03:55:03;;;;;;;8.52;1.42;;;3.30;99.90;;;;;;5093527;28;20178;-48
2023/01/19 03:57:30;;;;;;;7.53;1.10;;;3.50;99.90;;;;;;5094659;28;20478;-47
2023/01/19 03:59:55;;;;;;;6.57;1.17;;;3.50;99.90;;;;;;5093882;28;20370;-48
2023/01/19 04:02:22;;;;;;;7.68;1.40;;;3.50;99.90;;;;;;5093184;28;20054;-47
2023/01/19 04:04:48;;;;;;;8.38;1.58;;;3.40;99.90;;;;;;5093600;28;20048;-47
2023/01/19 04:07:14;;;;;;;9.10;1.73;;;3.50;99.90;;;;;;5094404;28;20412;-48
2023/01/19 04:09:40;;;;;;;16.75;1.98;;;3.50;99.90;;;;;;5094006;28;20051;-48
2023/01/19 04:12:06;;;;;;;11.40;1.70;;;3.40;99.90;;;;;;5093463;28;20057;-48
2023/01/19 04:14:32;;;;;;;15.43;2.55;;;3.60;99.90;;;;;;5093752;28;20051;-47
2023/01/19 04:16:58;;;;;;;18.17;2.65;;;3.50;99.90;;;;;;5074510;28;20801;-49
2023/01/19 04:19:24;;;;;;;18.27;2.47;;;3.60;99.90;;;;;;5093341;28;20044;-48
2023/01/19 04:21:50;;;;;;;12.07;3.15;;;3.70;99.90;;;;;;5093162;28;20168;-47
2023/01/19 04:24:16;;;;;;;15.55;2.13;;;3.50;99.90;;;;;;5093480;28;20108;-50
2023/01/19 04:26:42;;;;;;;14.70;2.15;;;3.60;99.90;;;;;;5094039;28;20354;-50
2023/01/19 04:29:08;;;;;;;13.90;1.90;;;3.60;99.90;;;;;;5075228;28;20048;-47
2023/01/19 04:31:35;;;;;;;7.60;1.52;;;3.80;99.90;;;;;;5092928;28;20041;-48
2023/01/19 04:34:02;;;;;;;13.98;1.73;;;3.60;99.90;;;;;;5092587;28;20153;-48
2023/01/19 04:36:28;;;;;;;14.50;1.60;;;3.70;99.90;;;;;;5058665;28;20061;-50
2023/01/19 04:38:54;;;;;;;13.07;1.73;;;3.80;99.90;;;;;;5093460;28;20035;-48
2023/01/19 04:41:20;;;;;;;13.73;2.38;;;3.80;99.90;;;;;;5093378;28;20055;-47
2023/01/19 04:43:46;;;;;;;14.02;1.65;;;3.70;99.90;;;;;;5074885;28;20051;-49
2023/01/19 04:46:15;;;;;;;13.23;2.20;;;3.70;99.90;;;;;;5094391;28;20043;-49
2023/01/19 04:48:41;;;;;;;8.57;2.17;;;3.80;99.90;;;;;;5097559;28;20039;-47
2023/01/19 04:51:07;;;;;;;7.75;1.48;;;3.80;99.90;;;;;;5097326;28;20039;-49
2023/01/19 04:53:33;;;;;;;11.13;1.38;;;3.80;99.90;;;;;;5096641;28;20044;-50
2023/01/19 04:55:59;;;;;;;10.38;1.98;;;3.90;99.90;;;;;;5097442;28;20505;-49
2023/01/19 04:58:25;;;;;;;6.03;1.10;;;3.90;99.90;;;;;;5097214;28;20393;-48
2023/01/19 05:00:51;;;;;;;11.02;1.35;;;3.70;99.90;;;;;;5077513;28;20047;-48
2023/01/19 05:03:18;;;;;;;10.55;1.15;;;3.80;99.90;;;;;;5093971;28;20071;-51
2023/01/19 05:05:45;;;;;;;5.95;1.75;;;3.70;99.90;;;;;;5095925;28;20415;-48
2023/01/19 05:08:10;;;;;;;9.95;1.20;;;3.70;99.90;;;;;;5095843;28;20036;-48
2023/01/19 05:10:36;;;;;;;8.60;1.45;;;3.60;99.90;;;;;;5096718;28;20050;-47
2023/01/19 05:13:03;;;;;;;4.05;1.30;;;3.40;99.90;;;;;;5095392;28;20036;-48
2023/01/19 05:15:28;;;;;;;5.40;1.05;;;3.30;99.90;;;;;;5096088;28;20459;-49
2023/01/19 05:17:56;;;;;;;8.45;1.10;;;3.20;99.90;;;;;;5095355;28;20070;-49
2023/01/19 05:20:23;;;;;;;6.10;1.00;;;3.10;99.90;;;;;;5097092;28;20047;-48
2023/01/19 05:22:52;;;;;;;6.70;1.67;;;3.00;99.90;;;;;;5094619;28;20043;-49
2023/01/19 05:25:18;;;;;;;6.10;1.13;;;3.00;99.90;;;;;;5096495;28;20043;-48
2023/01/19 05:27:44;;;;;;;8.75;1.20;;;2.90;99.90;;;;;;5096210;28;20039;-49
2023/01/19 05:30:12;;;;;;;7.25;1.10;;;2.70;99.90;;;;;;5095945;28;20106;-48
2023/01/19 05:32:38;;;;;;;7.85;1.30;;;2.70;99.90;;;;;;5094916;28;20385;-49
2023/01/19 05:35:04;;;;;;;10.40;1.30;;;2.60;99.90;;;;;;5096212;28;20872;-45
2023/01/19 05:37:31;;;;;;;7.65;1.15;;;2.50;99.90;;;;;;5095608;28;20067;-47
2023/01/19 05:39:57;;;;;;;11.07;1.70;;;2.60;99.90;;;;;;5096449;28;20055;-46
2023/01/19 05:42:23;;;;;;;9.82;1.08;;;2.50;99.90;;;;;;5094634;28;20048;-48
2023/01/19 05:44:48;;;;;;;12.65;2.20;;;2.50;99.90;;;;;;5095674;28;20039;-48
2023/01/19 05:47:14;;;;;;;6.80;1.58;;;2.60;99.90;;;;;;5096441;28;20043;-49
2023/01/19 05:49:40;;;;;;;15.38;1.85;;;2.50;99.90;;;;;;5096062;28;20113;-48
2023/01/19 05:52:05;;;;;;;9.32;1.90;;;2.40;99.90;;;;;;5094953;28;20043;-49
2023/01/19 05:54:31;;;;;;;8.00;1.35;;;2.40;99.90;;;;;;5096339;28;20091;-47
2023/01/19 05:56:57;;;;;;;16.45;2.63;;;2.60;99.90;;;;;;5076560;28;20050;-48
2023/01/19 05:59:23;;;;;;;14.18;2.15;;;2.40;99.90;;;;;;5095591;28;20044;-49
2023/01/19 06:01:52;;;;;;;9.98;1.48;;;2.50;99.90;;;;;;5094260;28;20484;-48
2023/01/19 06:04:19;;;;;;;12.68;1.85;;;2.60;99.90;;;;;;5095328;28;20058;-50
2023/01/19 06:06:47;;;;;;;12.27;2.15;;;2.70;99.90;;;;;;5095671;28;20044;-47
2023/01/19 06:09:13;;;;;;;19.35;2.38;;;2.80;99.90;;;;;;5095507;28;20376;-48
2023/01/19 06:11:39;;;;;;;12.55;2.20;;;2.70;99.90;;;;;;5094431;28;20050;-48
2023/01/19 06:14:04;;;;;;;12.13;2.03;;;2.80;99.90;;;;;;5094581;28;20044;-47
2023/01/19 06:16:30;;;;;;;10.38;3.30;;;2.90;99.90;;;;;;5076517;28;20356;-51
2023/01/19 06:18:56;;;;;;;17.40;3.72;;;2.70;99.90;;;;;;5095481;28;20036;-46
2023/01/19 06:21:22;;;;;;;11.90;2.92;;;2.70;99.90;;;;;;5074696;28;20044;-50
2023/01/19 06:23:47;;;;;;;21.17;4.57;;;2.90;99.90;;;;;;5094936;28;20132;-49
2023/01/19 06:26:13;;;;;;;12.68;2.53;;;2.90;99.90;;;;;;5094927;28;20048;-47
2023/01/19 06:28:39;;;;;;;17.65;3.83;;;2.80;99.90;;;;;;5095399;28;20043;-48
2023/01/19 06:31:04;;;;;;;13.63;2.38;;;2.80;99.90;;;;;;5095776;28;20082;-48
2023/01/19 06:33:30;;;;;;;16.05;2.72;;;3.00;99.90;;;;;;5093816;28;20054;-48
2023/01/19 06:35:56;;;;;;;17.67;2.50;;;3.00;99.90;;;;;;5094668;28;20167;-49
2023/01/19 06:38:22;;;;;;;13.38;2.22;;;3.00;99.90;;;;;;5094823;28;20039;-47
2023/01/19 06:41:01;;;;;;;19.33;2.40;;;2.90;99.90;;;;;;5076282;28;20481;-50
2023/01/19 06:43:27;;;;;;;14.07;1.83;;;3.00;99.90;;;;;;5093318;28;20036;-48
2023/01/19 06:45:53;;;;;;;14.50;2.42;;;3.10;99.90;;;;;;5076162;28;20124;-46
2023/01/19 06:48:19;;;;;;;17.15;3.50;;;3.10;99.90;;;;;;5094527;28;20048;-48
2023/01/19 06:50:46;;;;;;;15.45;2.65;;;2.90;99.90;;;;;;5094295;28;20072;-47
2023/01/19 06:53:12;;;;;;;18.42;2.13;;;2.90;99.90;;;;;;5074795;28;20048;-46
2023/01/19 06:55:38;;;;;;;19.23;2.65;;;2.90;99.90;;;;;;5094236;28;20357;-47
2023/01/19 06:58:03;;;;;;;12.73;2.33;;;3.00;99.90;;;;;;5094314;28;20050;-46
2023/01/19 07:00:29;;;;;;;14.43;2.85;;;2.80;99.90;;;;;;5094737;28;20126;-46
2023/01/19 07:02:55;;;;;;;15.88;2.28;;;2.80;99.90;;;;;;5075105;28;20084;-48
2023/01/19 07:05:21;;;;;;;20.00;2.95;;;2.80;99.90;;;;;;5076778;28;20374;-48
2023/01/19 07:07:56;;;;;;;13.05;2.25;;;2.80;99.90;;;;;;5094963;28;20079;-47
2023/01/19 07:10:23;;;;;;;15.20;3.17;;;2.70;99.90;;;;;;5094475;28;20047;-49
2023/01/19 07:12:48;;;;;;;18.52;2.65;;;2.60;99.90;;;;;;5092688;28;20039;-47
2023/01/19 07:15:16;;;;;;;17.13;2.55;;;2.60;99.90;;;;;;5094662;28;20043;-46
2023/01/19 07:17:42;;;;;;;16.90;3.63;;;2.50;99.90;;;;;;5075298;28;20426;-49
2023/01/19 07:20:13;;;;;;;19.45;2.65;;;2.50;99.90;;;;;;5084064;28;20048;-46
2023/01/19 07:22:44;;;;;;;17.42;3.05;;;2.60;99.90;;;;;;5089594;28;20588;-48
2023/01/19 07:25:10;;;;;;;17.63;2.70;;;2.60;99.90;;;;;;5094798;28;20118;-48
2023/01/19 07:27:36;;;;;;;18.95;2.33;;;2.60;99.90;;;;;;5094860;28;20080;-48
2023/01/19 07:30:03;;;;;;;20.35;3.78;;;2.50;99.90;;;;;;5095259;28;20051;-51
2023/01/19 07:32:29;;;;;;;16.63;2.70;;;2.50;99.90;;;;;;5093376;28;20367;-47
2023/01/19 07:34:55;;;;;;;18.70;2.95;;;2.50;99.90;;;;;;5094746;28;20054;-47
2023/01/19 07:37:20;;;;;;;19.00;3.45;;;2.50;99.90;;;;;;5094354;28;20393;-45
2023/01/19 07:39:46;;;;;;;12.95;3.22;;;2.50;99.90;;;;;;5094227;28;20039;-48
2023/01/19 07:42:12;;;;;;;20.65;3.22;;;2.50;99.90;;;;;;5092505;28;20047;-47
2023/01/19 07:44:37;;;;;;;17.27;2.80;;;2.50;99.90;;;;;;5094502;28;20444;-48
2023/01/19 07:47:06;;;;;;;19.20;2.80;;;2.50;99.90;;;;;;5093825;28;20040;-47
2023/01/19 07:49:32;;;;;;;19.92;2.22;;;2.60;99.90;;;;;;5093529;28;20054;-47
2023/01/19 07:51:57;;;;;;;16.40;2.78;;;2.60;99.90;;;;;;5092787;28;20051;-48
2023/01/19 07:54:23;;;;;;;15.77;3.40;;;2.60;99.90;;;;;;5094642;28;20150;-47
2023/01/19 07:56:51;;;;;;;14.98;3.92;;;2.70;99.90;;;;;;5093395;28;20153;-49
2023/01/19 07:59:17;;;;;;;15.70;3.00;;;2.80;99.90;;;;;;5094157;28;20086;-47
2023/01/19 08:01:43;;;;;;;18.55;3.30;;;2.80;99.90;;;;;;5073420;28;20381;-48
2023/01/19 08:04:09;;;;;;;13.18;2.88;;;2.90;99.90;;;;;;5093532;28;20393;-49
2023/01/19 08:06:37;;;;;;;19.23;2.83;;;2.90;99.90;;;;;;5093192;28;20063;-45
2023/01/19 08:09:07;;;;;;;14.20;2.28;;;2.90;99.90;;;;;;5093279;28;20389;-47
2023/01/19 08:11:33;;;;;;;14.75;2.20;;;3.00;99.90;;;;;;5076055;28;20043;-51
2023/01/19 08:13:59;;;;;;;12.60;2.55;;;3.00;99.90;;;;;;5074217;28;20043;-48
2023/01/19 08:16:26;;;;;;;30.30;4.82;;;3.00;99.90;;;;;;5080329;28;20507;-46
2023/01/19 08:18:52;;;;;;;10.98;2.22;;;3.00;99.90;;;;;;5068843;28;20036;-47
2023/01/19 08:21:18;;;;;;;17.88;3.33;;;3.00;99.90;;;;;;5094321;28;20124;-49
2023/01/19 08:23:44;;;;;;;13.05;2.42;;;2.90;99.90;;;;;;5078605;28;20044;-47
2023/01/19 08:26:18;;;;;;;12.95;2.60;;;2.80;99.90;;;;;;5079023;28;20056;-48
2023/01/19 08:28:44;;;;;;;13.45;2.58;;;2.80;99.90;;;;;;5090393;28;20036;-47
2023/01/19 08:31:09;;;;;;;15.60;2.40;;;2.80;99.90;;;;;;5091913;28;20067;-48
2023/01/19 08:33:35;;;;;;;12.75;2.15;;;2.70;99.90;;;;;;5097158;28;20043;-47
2023/01/19 08:36:01;;;;;;;16.20;2.53;;;2.70;99.90;;;;;;5096549;28;20431;-47
2023/01/19 08:38:27;;;;;;;12.23;1.95;;;2.60;99.90;;;;;;5098391;28;20035;-47
2023/01/19 08:40:52;;;;;;;13.80;2.20;;;2.50;99.90;;;;;;5097758;28;20446;-50
2023/01/19 08:43:18;;;;;;;21.40;2.25;;;2.50;99.90;;;;;;5096815;28;20043;-47
2023/01/19 08:45:50;;;;;;;10.05;2.05;;;2.40;99.90;;;;;;5097231;28;20104;-47
2023/01/19 08:48:20;;;;;;;14.80;1.97;;;2.30;99.90;;;;;;5096789;28;20040;-47
2023/01/19 08:50:47;;;;;;;24.23;2.72;;;2.30;99.90;;;;;;5078518;28;20791;-48
2023/01/19 08:53:13;;;;;;;15.50;2.75;;;2.30;99.90;;;;;;5077206;28;20523;-50
2023/01/19 08:55:39;;;;;;;12.32;2.22;;;2.20;99.90;;;;;;5096867;28;20089;-48
2023/01/19 08:58:07;;;;;;;15.93;2.65;;;2.20;99.90;;;;;;5096303;28;20035;-48
2023/01/19 09:00:36;;;;;;;11.60;2.20;;;2.30;99.90;;;;;;5077021;28;20046;-47
2023/01/19 09:03:03;;;;;;;18.08;3.35;;;2.20;99.90;;;;;;5084755;28;20036;-48
2023/01/19 09:05:34;;;;;;;15.52;2.50;;;2.30;99.90;;;;;;5076809;28;20044;-48
2023/01/19 09:08:01;;;;;;;13.60;2.63;;;2.30;99.90;;;;;;5079323;28;20043;-49
2023/01/19 09:10:30;;;;;;;16.30;2.40;;;2.30;99.90;;;;;;5076454;28;20040;-47
2023/01/19 09:12:56;;;;;;;16.25;2.95;;;2.30;99.90;;;;;;5076439;28;20079;-51
2023/01/19 09:15:22;;;;;;;14.82;2.50;;;2.40;99.90;;;;;;5076876;28;20594;-49
2023/01/19 09:17:50;;;;;;;16.48;3.42;;;2.50;99.90;;;;;;5092329;28;20154;-47
2023/01/19 09:20:16;;;;;;;17.85;3.45;;;2.50;99.90;;;;;;5067784;28;20553;-48
2023/01/19 09:22:42;;;;;;;16.08;3.13;;;2.60;99.90;;;;;;5073430;28;20040;-48
2023/01/19 09:25:08;;;;;;;17.63;2.83;;;2.60;99.90;;;;;;5079707;28;20040;-49
2023/01/19 09:27:34;;;;;;;14.52;2.63;;;2.70;99.90;;;;;;5057646;28;20127;-46
2023/01/19 09:30:00;;;;;;;13.70;2.55;;;2.70;99.90;;;;;;5057703;28;20497;-48
2023/01/19 09:32:26;;;;;;;17.20;2.38;;;2.80;99.90;;;;;;5077232;28;20062;-49
2023/01/19 09:34:53;;;;;;;12.25;2.85;;;2.80;99.90;;;;;;5074995;28;20504;-48
2023/01/19 09:37:19;;;;;;;20.10;2.72;;;2.90;99.90;;;;;;5079681;28;20051;-49
2023/01/19 09:39:45;;;;;;;20.38;2.95;;;2.80;99.90;;;;;;5079305;28;20860;-48
2023/01/19 09:42:34;;;;;;;22.42;3.08;;;3.00;99.90;;;;;;5090267;28;20067;-48
2023/01/19 09:45:04;;;;;;;18.10;2.83;;;3.00;99.90;;;;;;5091081;28;20089;-50
2023/01/19 09:47:31;;;;;;;15.70;3.00;;;3.00;99.90;;;;;;5095369;28;20082;-48
2023/01/19 09:50:03;;;;;;;13.70;2.80;;;3.00;99.90;;;;;;5090059;28;20521;-49
2023/01/19 09:52:34;;;;;;;15.85;3.05;;;3.20;99.90;;;;;;5066442;28;20405;-50
2023/01/19 09:55:01;;;;;;;13.50;2.20;;;3.20;99.90;;;;;;5094383;28;20063;-49
2023/01/19 09:57:28;;;;;;;15.10;2.92;;;3.30;99.90;;;;;;5069244;28;20054;-48
2023/01/19 09:59:58;;;;;;;11.82;2.17;;;3.30;99.90;;;;;;5060336;28;20047;-46
2023/01/19 10:02:35;;;;;;;17.65;3.20;;;3.40;99.90;;;;;;5076257;28;20938;-49
2023/01/19 10:05:24;;;;;;;16.27;4.60;;;3.50;99.90;;;;;;5077960;28;20048;-50
2023/01/19 10:08:18;;;;;;;15.15;2.47;;;3.70;99.90;;;;;;5080652;28;20059;-47
2023/01/19 10:10:55;;;;;;;12.65;2.30;;;3.80;99.90;;;;;;5093638;28;20067;-49
2023/01/19 10:13:38;;;;;;;18.73;2.95;;;3.80;99.90;;;;;;5093813;28;20043;-49
2023/01/19 10:16:13;;;;;;;12.77;2.28;;;3.80;99.90;;;;;;5094660;28;20040;-48
2023/01/19 10:18:50;;;;;;;23.25;2.22;;;3.80;99.90;;;;;;5075983;28;20124;-49
2023/01/19 10:21:48;;;;;;;15.63;2.42;;;3.90;99.90;;;;;;5094377;28;20062;-50
2023/01/19 10:24:26;;;;;;;15.77;2.13;;;3.90;99.90;;;;;;5094578;28;20056;-48
2023/01/19 10:26:55;;;;;;;14.57;2.25;;;3.90;99.90;;;;;;5092715;28;20485;-47
2023/01/19 10:29:39;;;;;;;11.45;2.20;;;4.00;99.90;;;;;;5076413;28;20036;-48
2023/01/19 10:32:19;;;;;;;14.55;1.95;;;4.00;99.90;;;;;;5075635;28;20127;-51
2023/01/19 10:34:46;;;;;;;11.05;2.40;;;4.00;99.90;;;;;;5095793;28;20931;-50
2023/01/19 10:37:36;;;;;;;11.85;2.10;;;4.10;99.90;;;;;;5094968;28;20745;-47
2023/01/19 10:40:08;;;;;;;12.70;2.38;;;4.10;99.90;;;;;;5095317;28;20484;-49
2023/01/19 10:42:35;;;;;;;10.27;1.95;;;4.20;99.90;;;;;;5075250;28;20280;-47
2023/01/19 10:45:00;;;;;;;13.75;2.60;;;4.20;99.90;;;;;;5093518;28;20122;-51
2023/01/19 10:47:34;;;;;;;10.77;2.20;;;4.30;99.90;;;;;;5095585;28;20126;-50
2023/01/19 10:50:17;;;;;;;12.73;2.45;;;4.40;99.90;;;;;;5094381;28;20075;-47
2023/01/19 10:52:49;;;;;;;10.48;2.38;;;4.50;99.90;;;;;;5094420;28;20177;-47
2023/01/19 10:55:33;;;;;;;17.05;2.13;;;4.70;99.90;;;;;;5094402;28;20050;-49
2023/01/19 10:57:59;;;;;;;14.07;2.10;;;4.80;99.90;;;;;;5094945;28;20048;-51
2023/01/19 11:00:35;;;;;;;10.02;1.73;;;4.80;99.90;;;;;;5094482;28;20063;-51
2023/01/19 11:03:01;;;;;;;12.63;1.98;;;4.80;99.90;;;;;;5075336;28;20051;-50
2023/01/19 11:05:30;;;;;;;10.32;2.25;;;4.80;99.90;;;;;;5094746;28;20044;-49
2023/01/19 11:07:56;;;;;;;14.63;3.00;;;4.70;99.90;;;;;;5093167;28;20051;-49
2023/01/19 11:10:24;;;;;;;7.57;1.17;;;4.60;99.90;;;;;;5094400;28;20164;-50
2023/01/19 11:13:11;;;;;;;13.45;2.50;;;4.60;99.90;;;;;;5093234;28;20498;-48
2023/01/19 11:15:57;;;;;;;6.55;1.50;;;4.60;99.90;;;;;;5094433;28;20047;-49
2023/01/19 11:18:30;;;;;;;19.30;7.60;;;4.60;99.90;;;;;;5076121;28;20051;-52
2023/01/19 11:21:11;;;;;;;9.73;2.10;;;4.50;99.90;;;;;;5093689;28;20127;-48
2023/01/19 11:23:44;;;;;;;9.25;2.22;;;4.60;99.90;;;;;;5094162;28;20604;-49
2023/01/19 11:26:23;;;;;;;12.82;3.17;;;4.60;99.90;;;;;;5094761;28;20079;-50
2023/01/19 11:28:52;;;;;;;11.13;2.00;;;4.60;99.90;;;;;;5094458;28;20126;-49
2023/01/19 11:31:33;;;;;;;10.52;1.75;;;4.60;99.90;;;;;;5080949;28;20056;-50
2023/01/19 11:34:02;;;;;;;9.50;1.92;;;4.60;99.90;;;;;;5093988;28;20055;-49
2023/01/19 11:36:35;;;;;;;11.48;1.63;;;4.60;99.90;;;;;;5094141;28;20944;-48
2023/01/19 11:39:19;;;;;;;;;;;4.60;99.90;;;;;;5094620;28;20070;-51
2023/01/19 11:41:50;;;;;;;12.57;1.60;;;4.60;99.90;;;;;;5093582;28;20431;-48
2023/01/19 11:44:41;;;;;;;8.75;1.73;;;4.60;99.90;;;;;;5094799;28;20052;-48
2023/01/19 11:47:22;;;;;;;8.95;1.67;;;4.60;99.90;;;;;;5058851;28;20446;-51
2023/01/19 11:50:10;;;;;;;11.80;1.55;;;4.60;99.90;;;;;;5092357;28;20389;-50
2023/01/19 11:52:48;;;;;;;9.38;2.70;;;4.60;99.90;;;;;;5072497;28;20048;-49
2023/01/19 11:55:33;;;;;;;6.03;1.90;;;4.60;99.90;;;;;;5094896;28;20036;-47
2023/01/19 11:57:58;;;;;;;11.27;2.53;;;4.60;99.90;;;;;;5079318;28;20046;-47
2023/01/19 12:00:32;;;;;;;9.55;1.75;;;4.70;99.90;;;;;;5097507;28;20040;-47
2023/01/19 12:03:24;;;;;;;12.57;2.15;;;4.70;99.90;;;;;;5078224;28;20071;-49
2023/01/19 12:05:59;;;;;;;15.65;2.58;;;4.70;99.90;;;;;;5098030;28;20090;-47
2023/01/19 12:08:33;;;;;;;6.32;1.60;;;4.80;99.90;;;;;;5098486;28;21022;-48
2023/01/19 12:11:01;;;;;;;11.57;1.95;;;4.90;99.90;;;;;;5097534;28;20055;-47
2023/01/19 12:13:30;;;;;;;6.80;1.95;;;5.00;99.90;;;;;;5097561;28;20054;-48
2023/01/19 12:16:05;;;;;;;10.52;1.58;;;5.10;99.90;;;;;;5096977;28;20094;-45
2023/01/19 12:18:44;;;;;;;8.13;2.10;;;5.20;99.90;;;;;;5096726;28;20044;-51
2023/01/19 12:21:09;;;;;;;9.00;1.65;;;5.50;99.90;;;;;;5095978;28;20043;-47
2023/01/19 12:23:38;;;;;;;6.32;1.45;;;5.50;99.90;;;;;;5097595;28;20047;-46
2023/01/19 12:26:31;;;;;;;8.50;1.77;;;5.60;99.90;;;;;;5096959;28;20040;-44
2023/01/19 12:29:16;;;;;;;7.45;1.65;;;5.50;99.90;;;;;;5095140;28;20504;-45
2023/01/19 12:31:42;;;;;;;5.00;1.27;;;5.40;99.90;;;;;;5093841;28;20060;-46
2023/01/19 12:34:29;;;;;;;7.03;1.60;;;5.30;99.90;;;;;;5076680;28;20051;-46
2023/01/19 12:37:03;;;;;;;8.23;1.45;;;5.20;99.90;;;;;;5094359;28;20051;-47
2023/01/19 12:39:29;;;;;;;10.55;2.80;;;5.10;99.90;;;;;;5095711;28;20032;-49
2023/01/19 12:42:16;;;;;;;9.27;2.38;;;5.20;99.90;;;;;;5094628;28;20043;-47
2023/01/19 12:44:44;;;;;;;9.10;2.22;;;5.20;99.90;;;;;;5095872;28;20051;-46
2023/01/19 12:47:11;;;;;;;8.07;1.77;;;5.30;99.90;;;;;;5095772;28;20043;-47
2023/01/19 12:49:37;;;;;;;9.52;1.50;;;5.40;99.90;;;;;;5097330;28;20150;-45
2023/01/19 12:52:35;;;;;;;9.65;2.22;;;5.60;99.90;;;;;;5077496;28;20127;-48
2023/01/19 12:55:05;;;;;;;10.30;1.60;;;5.80;99.90;;;;;;5013424;28;20053;-48
2023/01/19 12:57:31;;;;;;;7.07;1.60;;;5.90;99.90;;;;;;4997270;28;20229;-48
2023/01/19 13:00:05;;;;;;;6.50;1.50;;;5.80;99.90;;;;;;5013430;28;20201;-47
2023/01/19 13:02:44;;;;;;;7.75;2.30;;;5.80;99.90;;;;;;4995907;28;20045;-46
2023/01/19 13:05:43;;;;;;;8.65;2.72;;;5.70;99.90;;;;;;5013664;28;20061;-46
2023/01/19 13:08:10;;;;;;;6.25;1.30;;;5.70;99.90;;;;;;5012016;28;20060;-46
2023/01/19 13:11:09;;;;;;;5.68;1.85;;;5.60;99.90;;;;;;5013343;28;20085;-46
2023/01/19 13:13:48;;;;;;;6.28;1.55;;;5.60;99.90;;;;;;4993974;28;20049;-45